createdAt,value
2023-03-26T00:02:41.735Z,99824.47
2023-03-26T00:07:43.227Z,99831.44
2023-03-26T00:12:44.670Z,99839.00
2023-03-26T00:17:46.554Z,99838.00
2023-03-26T00:22:48.058Z,99843.13
2023-03-26T00:27:50.203Z,99850.84
2023-03-26T00:32:53.624Z,99862.84
2023-03-26T00:37:55.558Z,99860.00
2023-03-26T00:42:57.021Z,99871.38
2023-03-26T00:47:58.499Z,99868.66
2023-03-26T00:52:59.966Z,99877.56
2023-03-26T00:58:01.692Z,99871.34
2023-03-26T01:03:04.402Z,99871.06
2023-03-26T01:08:29.072Z,99893.47
2023-03-26T01:13:44.604Z,99903.09
2023-03-26T01:30:54.764Z,99904.13
2023-03-26T01:36:42.842Z,99896.94
2023-03-26T01:54:58.322Z,99887.38
2023-03-26T02:00:22.478Z,99896.72
2023-03-26T02:05:32.073Z,99911.28
2023-03-26T02:10:35.912Z,99904.22
2023-03-26T02:15:37.553Z,99909.81
2023-03-26T02:20:39.015Z,99902.44
2023-03-26T02:25:41.951Z,99913.47
2023-03-26T02:30:45.589Z,99907.06
2023-03-26T02:35:47.109Z,99915.34
2023-03-26T02:40:48.594Z,99912.50
2023-03-26T02:45:50.146Z,99918.88
2023-03-26T02:50:54.489Z,99925.59
2023-03-26T02:55:57.120Z,99923.00
2023-03-26T03:00:58.761Z,99923.47
2023-03-26T03:06:00.254Z,99926.44
2023-03-26T03:11:15.603Z,99925.81
2023-03-26T03:16:17.185Z,99933.97
2023-03-26T03:21:18.671Z,99932.47
2023-03-26T03:26:21.825Z,99935.34
2023-03-26T03:31:24.688Z,99930.00
2023-03-26T03:36:27.931Z,99921.88
2023-03-26T03:41:29.653Z,99934.66
2023-03-26T03:46:31.125Z,99915.91
2023-03-26T03:51:32.695Z,99912.19
2023-03-26T03:56:34.187Z,99931.47
2023-03-26T04:01:35.715Z,99919.59
2023-03-26T04:06:37.161Z,99916.78
2023-03-26T04:11:38.625Z,99920.88
2023-03-26T04:16:40.277Z,99916.66
2023-03-26T04:21:42.744Z,99908.25
2023-03-26T04:26:44.208Z,99922.28
2023-03-26T04:31:47.054Z,99919.47
2023-03-26T04:36:48.693Z,99922.28
2023-03-26T04:41:50.203Z,99926.06
2023-03-26T04:46:55.107Z,99921.88
2023-03-26T04:51:56.688Z,99924.84
2023-03-26T04:56:59.759Z,99917.22
2023-03-26T05:02:02.095Z,99921.88
2023-03-26T05:07:03.588Z,99929.47
2023-03-26T05:12:07.526Z,99924.25
2023-03-26T05:17:10.942Z,99920.69
2023-03-26T05:22:12.526Z,99925.75
2023-03-26T05:27:16.771Z,99929.38
2023-03-26T05:32:18.232Z,99933.09
2023-03-26T05:37:20.368Z,99940.09
2023-03-26T05:42:21.909Z,99944.38
2023-03-26T05:47:23.432Z,99948.78
2023-03-26T05:52:25.086Z,99942.63
2023-03-26T05:57:29.438Z,99941.38
2023-03-26T06:02:31.570Z,99939.13
2023-03-26T06:07:34.088Z,99946.97
2023-03-26T06:12:36.867Z,99938.78
2023-03-26T06:17:38.366Z,99941.25
2023-03-26T06:22:39.835Z,99947.91
2023-03-26T06:27:41.330Z,99942.88
2023-03-26T06:32:42.866Z,99944.13
2023-03-26T06:37:45.386Z,99945.09
2023-03-26T06:43:08.557Z,99952.13
2023-03-26T06:48:08.333Z,99953.28
2023-03-26T06:53:10.539Z,99951.16
2023-03-26T06:58:12.446Z,99958.66
2023-03-26T07:03:14.004Z,99967.97
2023-03-26T07:08:15.930Z,99952.25
2023-03-26T07:13:17.388Z,99947.06
2023-03-26T07:18:18.832Z,99948.34
2023-03-26T07:23:21.245Z,99955.25
2023-03-26T07:28:25.829Z,99959.19
2023-03-26T07:33:47.980Z,99959.00
2023-03-26T07:39:05.069Z,99963.47
2023-03-26T07:44:21.923Z,99961.50
2023-03-26T07:49:23.606Z,99968.56
2023-03-26T07:54:25.469Z,99969.22
2023-03-26T07:59:34.152Z,99960.41
2023-03-26T08:05:30.884Z,99962.41
2023-03-26T08:11:03.665Z,99971.44
2023-03-26T08:16:36.800Z,99975.38
2023-03-26T08:21:42.095Z,99971.41
2023-03-26T08:26:55.120Z,99974.91
2023-03-26T08:31:57.458Z,99973.28
2023-03-26T08:36:58.972Z,99970.56
2023-03-26T08:42:19.605Z,99972.09
2023-03-26T08:47:55.751Z,99973.47
2023-03-26T08:53:20.133Z,99974.28
2023-03-26T08:58:40.377Z,99977.06
2023-03-26T09:04:17.699Z,99979.25
2023-03-26T09:09:42.630Z,99980.63
2023-03-26T09:15:08.484Z,99984.81
2023-03-26T09:20:31.823Z,100002.00
2023-03-26T09:25:56.718Z,99984.97
2023-03-26T09:31:16.806Z,99984.66
2023-03-26T09:36:35.902Z,99993.59
2023-03-26T09:42:05.015Z,99994.63
2023-03-26T09:47:48.267Z,100004.63
2023-03-26T09:52:57.123Z,100018.22
2023-03-26T09:58:14.025Z,100018.59
2023-03-26T10:03:33.965Z,100014.97
2023-03-26T10:08:39.195Z,100012.53
2023-03-26T10:14:04.100Z,100014.56
2023-03-26T10:19:24.368Z,100020.47
2023-03-26T10:25:06.332Z,100035.53
2023-03-26T10:30:26.432Z,100039.31
2023-03-26T10:35:55.859Z,100025.63
2023-03-26T10:41:08.987Z,100029.84
2023-03-26T10:46:35.521Z,100041.22
2023-03-26T10:51:54.725Z,100040.47
2023-03-26T10:56:56.480Z,100042.72
2023-03-26T11:02:19.585Z,100037.59
2023-03-26T11:07:39.335Z,100048.41
2023-03-26T11:12:46.450Z,100051.41
2023-03-26T11:17:50.794Z,100050.13
2023-03-26T11:23:01.175Z,100059.47
2023-03-26T11:28:16.376Z,100063.44
2023-03-26T11:33:26.690Z,100070.84
2023-03-26T11:38:40.148Z,100074.19
2023-03-26T11:43:41.620Z,100076.47
2023-03-26T11:48:58.018Z,100084.28
2023-03-26T11:54:03.080Z,100086.41
2023-03-26T11:59:13.852Z,100076.97
2023-03-26T12:04:15.762Z,100079.41
2023-03-26T12:09:17.898Z,100088.16
2023-03-26T12:14:22.057Z,100090.53
2023-03-26T12:19:24.611Z,100101.66
2023-03-26T12:24:29.866Z,100101.34
2023-03-26T12:29:34.163Z,100100.03
2023-03-26T12:34:36.237Z,100108.06
2023-03-26T12:40:08.705Z,100104.50
2023-03-26T12:45:01.382Z,100109.63
2023-03-26T12:50:03.685Z,100104.78
2023-03-26T12:55:20.538Z,100100.75
2023-03-26T13:00:42.997Z,100108.31
2023-03-26T13:05:55.766Z,100110.25
2023-03-26T13:11:05.484Z,100112.38
2023-03-26T13:16:27.513Z,100116.47
2023-03-26T13:21:28.846Z,100114.59
2023-03-26T13:26:51.941Z,100115.75
2023-03-26T13:32:10.855Z,100118.66
2023-03-26T13:37:18.163Z,100108.75
2023-03-26T13:42:41.896Z,100113.41
2023-03-26T13:47:46.298Z,100125.56
2023-03-26T13:53:09.532Z,100119.75
2023-03-26T13:58:14.632Z,100126.78
2023-03-26T14:03:20.988Z,100130.75
2023-03-26T14:08:32.719Z,100129.69
2023-03-26T14:13:47.459Z,100129.69
2023-03-26T14:19:10.781Z,100136.34
2023-03-26T14:24:34.225Z,100137.75
2023-03-26T14:29:56.263Z,100146.31
2023-03-26T14:35:17.182Z,100145.72
2023-03-26T14:40:25.173Z,100141.31
2023-03-26T14:45:48.006Z,100145.38
2023-03-26T14:50:58.743Z,100155.53
2023-03-26T14:56:21.214Z,100161.53
2023-03-26T15:01:26.670Z,100178.03
2023-03-26T15:06:46.677Z,100164.22
2023-03-26T15:12:12.183Z,100173.69
2023-03-26T15:17:36.627Z,100180.34
2023-03-26T15:23:21.000Z,100190.09
2023-03-26T15:28:37.269Z,100178.47
2023-03-26T15:33:51.518Z,100190.72
2023-03-26T15:39:17.664Z,100203.69
2023-03-26T15:44:50.886Z,100203.78
2023-03-26T15:50:26.127Z,100215.97
2023-03-26T15:55:36.561Z,100214.91
2023-03-26T16:01:22.821Z,100228.03
2023-03-26T16:06:48.164Z,100232.91
2023-03-26T16:12:04.129Z,100240.78
2023-03-26T16:17:06.448Z,100238.59
2023-03-26T16:22:14.498Z,100246.78
2023-03-26T16:27:16.081Z,100241.63
2023-03-26T16:32:41.072Z,100240.09
2023-03-26T16:37:51.629Z,100242.53
2023-03-26T16:43:15.184Z,100259.56
2023-03-26T16:48:36.827Z,100265.75
2023-03-26T16:53:46.432Z,100276.38
2023-03-26T16:58:56.042Z,100286.56
2023-03-26T17:04:01.691Z,100289.94
2023-03-26T17:09:21.949Z,100306.22
2023-03-26T17:14:39.746Z,100297.97
2023-03-26T17:20:14.491Z,100311.63
2023-03-26T17:25:34.421Z,100323.75
2023-03-26T17:30:44.620Z,100328.25
2023-03-26T17:35:47.106Z,100333.91
2023-03-26T17:40:58.743Z,100338.00
2023-03-26T17:46:02.607Z,100353.44
2023-03-26T17:51:31.633Z,100350.53
2023-03-26T17:56:33.271Z,100362.75
2023-03-26T18:01:35.995Z,100373.44
2023-03-26T18:06:54.211Z,100379.34
2023-03-26T18:12:19.009Z,100385.38
2023-03-26T18:17:20.557Z,100393.34
2023-03-26T18:22:26.548Z,100408.56
2023-03-26T18:27:36.812Z,100402.78
2023-03-26T18:32:41.023Z,100417.31
2023-03-26T18:37:44.198Z,100419.78
2023-03-26T18:42:55.011Z,100423.59
2023-03-26T18:47:58.182Z,100432.91
2023-03-26T18:53:00.466Z,100440.56
2023-03-26T18:58:18.909Z,100455.66
2023-03-26T19:03:21.902Z,100442.75
2023-03-26T19:08:23.902Z,100467.63
2023-03-26T19:13:25.417Z,100452.72
2023-03-26T19:18:26.965Z,100469.22
2023-03-26T19:23:32.172Z,100477.50
2023-03-26T19:28:49.225Z,100473.13
2023-03-26T19:34:04.039Z,100476.75
2023-03-26T19:39:11.965Z,100472.81
2023-03-26T19:44:27.167Z,100462.94
2023-03-26T19:49:31.953Z,100480.25
2023-03-26T19:55:04.982Z,100488.97
2023-03-26T20:00:18.963Z,100486.47
2023-03-26T20:05:25.980Z,100499.50
2023-03-26T20:10:27.568Z,100496.06
2023-03-26T20:15:30.966Z,100494.47
2023-03-26T20:20:34.178Z,100505.00
2023-03-26T20:25:35.667Z,100506.44
2023-03-26T20:30:38.031Z,100505.34
2023-03-26T20:35:39.717Z,100508.44
2023-03-26T20:40:41.196Z,100517.44
2023-03-26T20:45:42.665Z,100518.19
2023-03-26T20:51:01.600Z,100512.19
2023-03-26T20:56:03.488Z,100528.22
2023-03-26T21:01:05.640Z,100526.31
2023-03-26T21:06:14.910Z,100536.19
2023-03-26T21:11:26.650Z,100541.63
2023-03-26T21:16:28.848Z,100546.31
2023-03-26T21:21:47.534Z,100537.66
2023-03-26T21:26:50.600Z,100541.91
2023-03-26T21:31:54.039Z,100546.00
2023-03-26T21:36:55.969Z,100542.38
2023-03-26T21:42:05.249Z,100555.31
2023-03-26T21:47:09.768Z,100553.22
2023-03-26T21:52:15.396Z,100563.75
2023-03-26T21:57:17.644Z,100572.84
2023-03-26T22:02:29.012Z,100583.78
2023-03-26T22:07:38.556Z,100595.69
2023-03-26T22:12:40.003Z,100599.31
2023-03-26T22:17:41.867Z,100598.00
2023-03-26T22:22:48.769Z,100605.38
2023-03-26T22:27:50.703Z,100613.16
2023-03-26T22:32:52.207Z,100619.75
2023-03-26T22:38:00.777Z,100630.88
2023-03-26T22:43:02.777Z,100639.19
2023-03-26T22:48:04.748Z,100641.78
2023-03-26T22:53:06.487Z,100640.16
2023-03-26T22:58:08.049Z,100647.47
2023-03-26T23:03:09.538Z,100644.59
2023-03-26T23:08:11.675Z,100635.16
2023-03-26T23:13:13.147Z,100650.16
2023-03-26T23:18:14.614Z,100648.94
2023-03-26T23:23:16.087Z,100668.91
2023-03-26T23:28:17.854Z,100668.13
2023-03-26T23:33:20.464Z,100666.03
2023-03-26T23:38:22.252Z,100682.59
2023-03-26T23:43:24.148Z,100684.28
2023-03-26T23:48:25.819Z,100691.28
2023-03-26T23:53:28.986Z,100689.28
2023-03-26T23:58:30.651Z,100691.09
